This is the latest recevied weather packets stored in our database for station/object FHDOHA-13. If no packets are shown the sender has not sent any weather packets the latest 10 day(s).
| Time | Temp. | Humidity | Pressure | Rain* | Wind** | Luminosity | Snow |
|---|---|---|---|---|---|---|---|
| 1777669273 | 13.33° C | 56% | 1024 hPa | 0 mm | - | - | - |
| 1777668373 | 13.89° C | 54% | 1023.9 hPa | 0 mm | - | - | - |
| 1777667473 | 13.89° C | 55% | 1023.9 hPa | 0 mm | - | - | - |
| 1777666573 | 13.89° C | 56% | 1023.9 hPa | 0 mm | - | - | - |
| 1777665673 | 14.44° C | 55% | 1023.9 hPa | 0 mm | - | - | - |
| 1777664773 | 15° C | 52% | 1023.8 hPa | 0 mm | - | - | - |
| 1777663873 | 16.11° C | 49% | 1023.7 hPa | 0 mm | - | - | - |
| 1777662973 | 17.22° C | 44% | 1023.6 hPa | 0 mm | - | - | - |
| 1777662073 | 17.78° C | 41% | 1023.6 hPa | 0 mm | - | - | - |
| 1777661173 | 18.33° C | 40% | 1023.5 hPa | 0 mm | - | - | - |
| 1777660273 | 19.44° C | 37% | 1023.4 hPa | 0 mm | - | - | - |
| 1777659373 | 23.33° C | 30% | 1023 hPa | 0 mm | - | - | - |
| 1777658473 | 24.44° C | 29% | 1022.9 hPa | 0 mm | - | - | - |
| 1777657573 | 23.33° C | 31% | 1023 hPa | 0 mm | - | - | - |
| 1777656673 | 20.56° C | 36% | 1023.3 hPa | 0 mm | - | - | - |
| 1777655773 | 20.56° C | 35% | 1024.3 hPa | 0 mm | - | - | - |
| 1777654873 | 20.56° C | 34% | 1024.3 hPa | 0 mm | - | - | - |
| 1777653973 | 21.11° C | 33% | 1024.2 hPa | 0 mm | - | - | - |
| 1777653073 | 21.11° C | 32% | 1024.2 hPa | 0 mm | - | - | - |
| 1777652173 | 21.11° C | 31% | 1024.2 hPa | 0 mm | - | - | - |
| 1777651273 | 21.67° C | 31% | 1024.2 hPa | 0 mm | - | - | - |
| 1777650373 | 21.67° C | 31% | 1024.2 hPa | 0 mm | - | - | - |
| 1777649473 | 21.67° C | 30% | 1025.2 hPa | 0 mm | - | - | - |
| 1777647673 | 21.67° C | 30% | 1025.2 hPa | 0 mm | - | - | - |
| 1777646773 | 21.67° C | 30% | 1025.2 hPa | 0 mm | - | - | - |
* Rain latest hour (hover to see other rain measurements)
** Current wind speed in m/s (hover to see current wind gust speed)